createdAt,value
2023-05-23T00:01:32.108Z,95028.53
2023-05-23T00:04:34.172Z,95034.25
2023-05-23T00:07:36.254Z,95029.66
2023-05-23T00:10:38.676Z,95035.56
2023-05-23T00:13:44.196Z,95034.84
2023-05-23T00:16:46.698Z,95037.91
2023-05-23T00:19:48.469Z,95032.66
2023-05-23T00:22:50.198Z,95039.91
2023-05-23T00:25:52.314Z,95041.91
2023-05-23T00:28:56.105Z,95038.56
2023-05-23T00:31:57.872Z,95044.56
2023-05-23T00:34:59.813Z,95037.19
2023-05-23T00:38:03.896Z,95041.13
2023-05-23T00:41:06.428Z,95039.72
2023-05-23T00:44:09.943Z,95031.34
2023-05-23T00:47:11.800Z,95035.94
2023-05-23T00:50:14.849Z,95037.28
2023-05-23T00:53:17.091Z,95046.75
2023-05-23T00:56:19.130Z,95055.25
2023-05-23T00:59:23.920Z,95056.38
2023-05-23T01:02:25.879Z,95054.50
2023-05-23T01:05:29.003Z,95057.63
2023-05-23T01:08:31.684Z,95053.31
2023-05-23T01:11:42.058Z,95051.34
2023-05-23T01:14:51.672Z,95060.72
2023-05-23T01:18:02.888Z,95054.84
2023-05-23T01:21:10.692Z,95050.91
2023-05-23T01:24:40.737Z,95064.63
2023-05-23T01:27:51.333Z,95062.69
2023-05-23T01:30:57.846Z,95070.44
2023-05-23T01:34:00.738Z,95067.38
2023-05-23T01:37:10.629Z,95070.97
2023-05-23T01:40:12.734Z,95076.22
2023-05-23T01:43:16.256Z,95074.59
2023-05-23T01:46:18.930Z,95077.66
2023-05-23T01:49:22.910Z,95070.88
2023-05-23T01:52:25.223Z,95067.25
2023-05-23T01:55:27.892Z,95076.38
2023-05-23T01:58:32.292Z,95069.31
2023-05-23T02:01:38.634Z,95078.88
2023-05-23T02:04:40.662Z,95073.34
2023-05-23T02:07:43.072Z,95077.25
2023-05-23T02:10:46.088Z,95079.97
2023-05-23T02:13:50.158Z,95062.31
2023-05-23T02:16:52.265Z,95072.50
2023-05-23T02:19:54.709Z,95076.09
2023-05-23T02:22:56.644Z,95071.78
2023-05-23T02:25:58.969Z,95073.59
2023-05-23T02:29:02.534Z,95063.16
2023-05-23T02:32:04.810Z,95071.69
2023-05-23T02:35:07.666Z,95072.44
2023-05-23T02:38:12.019Z,95073.50
2023-05-23T02:41:13.836Z,95082.34
2023-05-23T02:44:16.950Z,95078.53
2023-05-23T02:47:20.648Z,95072.75
2023-05-23T02:50:25.121Z,95077.75
2023-05-23T02:53:27.442Z,95081.91
2023-05-23T02:56:30.606Z,95080.91
2023-05-23T02:59:34.242Z,95081.69
2023-05-23T03:02:36.303Z,95079.84
2023-05-23T03:05:38.590Z,95079.34
2023-05-23T03:08:41.555Z,95075.22
2023-05-23T03:11:45.020Z,95069.41
2023-05-23T03:14:48.338Z,95078.22
2023-05-23T03:17:50.451Z,95074.22
2023-05-23T03:20:55.365Z,95079.00
2023-05-23T03:23:57.429Z,95085.94
2023-05-23T03:27:00.207Z,95078.72
2023-05-23T03:30:03.875Z,95079.66
2023-05-23T03:33:05.731Z,95081.34
2023-05-23T03:36:08.050Z,95078.19
2023-05-23T03:39:09.959Z,95085.59
2023-05-23T03:42:11.987Z,95088.00
2023-05-23T03:45:17.858Z,95095.25
2023-05-23T03:48:21.124Z,95089.94
2023-05-23T03:51:23.184Z,95094.72
2023-05-23T03:54:25.459Z,95087.88
2023-05-23T03:57:28.715Z,95091.97
2023-05-23T04:00:33.403Z,95091.97
2023-05-23T04:03:37.868Z,95088.13
2023-05-23T04:06:39.992Z,95092.09
2023-05-23T04:09:44.303Z,95087.53
2023-05-23T04:12:46.489Z,95094.75
2023-05-23T04:15:50.603Z,95093.03
2023-05-23T04:18:52.479Z,95092.16
2023-05-23T04:21:54.487Z,95089.09
2023-05-23T04:24:57.856Z,95091.53
2023-05-23T04:28:00.347Z,95090.91
2023-05-23T04:31:04.446Z,95102.75
2023-05-23T04:34:06.914Z,95104.50
2023-05-23T04:37:09.186Z,95098.72
2023-05-23T04:40:13.163Z,95099.09
2023-05-23T04:43:18.541Z,95106.91
2023-05-23T04:46:22.132Z,95106.81
2023-05-23T04:49:24.036Z,95110.97
2023-05-23T04:52:27.702Z,95110.00
2023-05-23T04:55:30.773Z,95107.50
2023-05-23T04:58:32.953Z,95107.41
2023-05-23T05:01:43.749Z,95110.03
2023-05-23T05:04:47.369Z,95114.09
2023-05-23T05:07:49.867Z,95106.56
2023-05-23T05:10:53.216Z,95108.63
2023-05-23T05:13:55.702Z,95118.91
2023-05-23T05:16:59.875Z,95128.41
2023-05-23T05:20:03.565Z,95124.66
2023-05-23T05:23:05.930Z,95124.78
2023-05-23T05:26:07.984Z,95138.75
2023-05-23T05:29:09.899Z,95137.66
2023-05-23T05:32:13.820Z,95143.97
2023-05-23T05:35:16.425Z,95143.44
2023-05-23T05:38:18.455Z,95143.34
2023-05-23T05:41:20.284Z,95144.56
2023-05-23T05:44:22.711Z,95143.25
2023-05-23T05:47:28.453Z,95138.44
2023-05-23T05:50:31.257Z,95145.22
2023-05-23T05:53:33.158Z,95141.00
2023-05-23T05:56:35.118Z,95137.81
2023-05-23T05:59:37.235Z,95137.75
2023-05-23T06:02:41.601Z,95137.09
2023-05-23T06:05:43.405Z,95140.94
2023-05-23T06:08:45.282Z,95136.44
2023-05-23T06:11:48.544Z,95132.00
2023-05-23T06:14:50.682Z,95129.25
2023-05-23T06:17:55.820Z,95133.41
2023-05-23T06:20:58.440Z,95136.16
2023-05-23T06:24:03.542Z,95145.44
2023-05-23T06:27:05.987Z,95140.94
2023-05-23T06:30:09.032Z,95137.47
2023-05-23T06:33:12.507Z,95136.91
2023-05-23T06:36:14.653Z,95148.16
2023-05-23T06:39:17.002Z,95146.50
2023-05-23T06:42:18.813Z,95149.03
2023-05-23T06:45:20.600Z,95155.59
2023-05-23T06:48:26.105Z,95153.28
2023-05-23T06:51:28.592Z,95147.06
2023-05-23T06:54:30.677Z,95154.41
2023-05-23T06:57:32.420Z,95154.50
2023-05-23T07:00:34.410Z,95150.13
2023-05-23T07:03:37.742Z,95158.00
2023-05-23T07:06:39.819Z,95163.47
2023-05-23T07:09:43.386Z,95164.44
2023-05-23T07:12:45.181Z,95161.81
2023-05-23T07:15:47.151Z,95165.00
2023-05-23T07:18:52.744Z,95172.41
2023-05-23T07:21:57.367Z,95166.53
2023-05-23T07:24:59.474Z,95157.03
2023-05-23T07:28:04.834Z,95161.16
2023-05-23T07:31:07.063Z,95159.63
2023-05-23T07:34:10.574Z,95149.53
2023-05-23T07:37:15.114Z,95150.63
2023-05-23T07:40:17.374Z,95153.03
2023-05-23T07:43:19.427Z,95156.94
2023-05-23T07:46:21.230Z,95157.25
2023-05-23T07:49:24.592Z,95156.47
2023-05-23T07:52:28.488Z,95148.53
2023-05-23T07:55:30.234Z,95154.88
2023-05-23T07:58:31.999Z,95153.88
2023-05-23T08:01:36.680Z,95153.44
2023-05-23T08:04:42.813Z,95166.34
2023-05-23T08:07:45.976Z,95156.47
2023-05-23T08:10:48.089Z,95151.66
2023-05-23T08:13:50.850Z,95169.47
2023-05-23T08:16:52.887Z,95162.28
2023-05-23T08:19:56.435Z,95168.47
2023-05-23T08:22:59.372Z,95177.66
2023-05-23T08:26:01.777Z,95170.13
2023-05-23T08:29:05.746Z,95167.97
2023-05-23T08:32:07.808Z,95178.22
2023-05-23T08:35:11.505Z,95166.63
2023-05-23T08:38:14.635Z,95182.78
2023-05-23T08:41:20.642Z,95191.25
2023-05-23T08:44:23.026Z,95192.09
2023-05-23T08:47:25.110Z,95203.88
2023-05-23T08:50:30.702Z,95192.00
2023-05-23T08:53:33.364Z,95196.47
2023-05-23T08:56:36.450Z,95193.69
2023-05-23T08:59:41.519Z,95206.72
2023-05-23T09:02:44.748Z,95209.66
2023-05-23T09:05:49.702Z,95213.09
2023-05-23T09:08:52.008Z,95220.69
2023-05-23T09:11:56.225Z,95227.06
2023-05-23T09:14:58.236Z,95226.69
2023-05-23T09:18:01.111Z,95227.47
2023-05-23T09:21:08.341Z,95227.81
2023-05-23T09:24:10.439Z,95228.06
2023-05-23T09:27:12.668Z,95220.63
2023-05-23T09:30:15.316Z,95220.78
2023-05-23T09:33:17.263Z,95216.25
2023-05-23T09:36:21.920Z,95215.09
2023-05-23T09:39:25.041Z,95206.81
2023-05-23T09:42:32.252Z,95203.34
2023-05-23T09:45:35.068Z,95210.72
2023-05-23T09:48:37.424Z,95212.31
2023-05-23T09:51:41.360Z,95205.38
2023-05-23T09:54:43.520Z,95207.13
2023-05-23T09:57:49.943Z,95218.78
2023-05-23T10:00:53.367Z,95207.09
2023-05-23T10:03:57.931Z,95216.25
2023-05-23T10:07:07.475Z,95213.66
2023-05-23T10:10:12.633Z,95202.53
2023-05-23T10:13:14.735Z,95199.69
2023-05-23T10:16:28.956Z,95194.34
2023-05-23T10:19:42.276Z,95192.38
2023-05-23T10:22:46.569Z,95168.97
2023-05-23T10:25:51.289Z,95175.09
2023-05-23T10:28:54.851Z,95172.75
2023-05-23T10:31:57.798Z,95170.84
2023-05-23T10:35:05.317Z,95158.94
2023-05-23T10:38:25.053Z,95145.38
2023-05-23T10:41:33.949Z,95136.69
2023-05-23T10:44:36.876Z,95144.78
2023-05-23T10:47:40.386Z,95147.69
2023-05-23T10:50:42.673Z,95154.06
2023-05-23T10:53:53.834Z,95159.72
2023-05-23T10:57:03.589Z,95170.69
2023-05-23T11:00:12.090Z,95162.16
2023-05-23T11:03:14.332Z,95160.03
2023-05-23T11:06:30.603Z,95179.50
2023-05-23T11:09:33.907Z,95185.72
2023-05-23T11:12:40.837Z,95216.22
2023-05-23T11:15:43.142Z,95243.53
2023-05-23T11:18:47.444Z,95205.41
2023-05-23T11:21:50.991Z,95217.16
2023-05-23T11:24:55.203Z,95231.53
2023-05-23T11:27:57.208Z,95234.16
2023-05-23T11:30:59.394Z,95241.31
2023-05-23T11:34:03.037Z,95236.03
2023-05-23T11:37:06.169Z,95234.13
2023-05-23T11:40:30.190Z,95230.75
2023-05-23T11:43:32.230Z,95248.00
2023-05-23T11:46:34.342Z,95254.78
2023-05-23T11:49:39.619Z,95272.97
2023-05-23T11:52:41.463Z,95281.38
2023-05-23T11:55:53.685Z,95274.34
2023-05-23T11:58:57.548Z,95266.91
2023-05-23T12:02:02.791Z,95275.28
2023-05-23T12:05:09.553Z,95260.31
2023-05-23T12:08:15.121Z,95273.09
2023-05-23T12:11:19.964Z,95268.31
2023-05-23T12:14:22.214Z,95243.59
2023-05-23T12:17:24.171Z,95253.16
2023-05-23T12:20:33.514Z,95252.56
2023-05-23T12:23:37.146Z,95243.25
2023-05-23T12:26:53.422Z,95244.53
2023-05-23T12:30:05.594Z,95248.97
2023-05-23T12:33:10.010Z,95244.66
2023-05-23T12:36:13.631Z,95242.41
2023-05-23T12:39:16.836Z,95257.69
2023-05-23T12:42:24.053Z,95259.72
2023-05-23T12:45:33.440Z,95254.69
2023-05-23T12:48:39.191Z,95248.13
2023-05-23T12:51:41.426Z,95242.41
2023-05-23T12:54:44.577Z,95254.34
2023-05-23T12:57:48.303Z,95262.19
2023-05-23T13:00:52.645Z,95264.16
2023-05-23T13:03:56.776Z,95255.72
2023-05-23T13:07:01.142Z,95248.53
2023-05-23T13:10:04.421Z,95261.50
2023-05-23T13:13:09.167Z,95266.13
2023-05-23T13:16:13.176Z,95262.19
2023-05-23T13:19:14.970Z,95248.47
2023-05-23T13:22:18.394Z,95239.34
2023-05-23T13:25:20.813Z,95223.06
2023-05-23T13:28:26.735Z,95216.00
2023-05-23T13:31:31.629Z,95204.59
2023-05-23T13:34:33.922Z,95207.66
2023-05-23T13:37:35.748Z,95218.25
2023-05-23T13:40:40.625Z,95195.47
2023-05-23T13:43:46.497Z,95205.53
2023-05-23T13:46:48.713Z,95197.09
2023-05-23T13:49:50.780Z,95209.06
2023-05-23T13:52:57.362Z,95213.03
2023-05-23T13:55:59.447Z,95226.72
2023-05-23T13:59:03.025Z,95228.66
2023-05-23T14:02:05.616Z,95244.34
2023-05-23T14:05:08.183Z,95241.03
2023-05-23T14:08:10.530Z,95246.94
2023-05-23T14:11:13.095Z,95255.69
2023-05-23T14:14:16.304Z,95246.72
2023-05-23T14:17:18.716Z,95255.56
2023-05-23T14:20:24.006Z,95258.13
2023-05-23T14:23:26.303Z,95259.06
2023-05-23T14:26:29.351Z,95252.94
2023-05-23T14:29:33.202Z,95258.75
2023-05-23T14:32:35.594Z,95250.66
2023-05-23T14:35:39.262Z,95250.03
2023-05-23T14:38:42.480Z,95256.59
2023-05-23T14:41:44.754Z,95261.09
2023-05-23T14:44:50.408Z,95256.25
2023-05-23T14:47:52.910Z,95281.22
2023-05-23T14:50:57.413Z,95278.25
2023-05-23T14:54:02.740Z,95271.44
2023-05-23T14:57:05.176Z,95265.25
2023-05-23T15:00:11.488Z,95270.88
2023-05-23T15:03:15.861Z,95276.19
2023-05-23T15:06:18.220Z,95271.75
2023-05-23T15:09:20.691Z,95270.47
2023-05-23T15:12:26.493Z,95268.84
2023-05-23T15:15:33.636Z,95267.81
2023-05-23T15:18:41.173Z,95261.78
2023-05-23T15:24:50.990Z,95274.44
2023-05-23T15:27:52.767Z,95281.59
2023-05-23T15:30:58.170Z,95266.41
2023-05-23T15:34:00.727Z,95263.88
2023-05-23T15:37:02.693Z,95247.75
2023-05-23T15:40:06.803Z,95247.31
2023-05-23T15:43:09.196Z,95250.19
2023-05-23T15:46:14.444Z,95247.94
2023-05-23T15:49:24.889Z,95255.09
2023-05-23T15:52:28.132Z,95256.69
2023-05-23T15:55:30.229Z,95252.56
2023-05-23T15:58:31.947Z,95241.06
2023-05-23T16:01:35.291Z,95258.34
2023-05-23T16:04:37.585Z,95266.00
2023-05-23T16:07:39.476Z,95254.00
2023-05-23T16:10:43.651Z,95258.53
2023-05-23T16:13:48.133Z,95260.50
2023-05-23T16:16:51.798Z,95267.78
2023-05-23T16:19:53.975Z,95268.63
2023-05-23T16:22:56.227Z,95266.63
2023-05-23T16:26:00.600Z,95270.47
2023-05-23T16:29:03.109Z,95269.09
2023-05-23T16:32:07.852Z,95253.31
2023-05-23T16:35:10.389Z,95265.75
2023-05-23T16:38:12.164Z,95252.69
2023-05-23T16:41:15.941Z,95255.16
2023-05-23T16:44:17.986Z,95251.91
2023-05-23T16:47:23.351Z,95245.78
2023-05-23T16:50:26.550Z,95253.97
2023-05-23T16:53:31.685Z,95257.56
2023-05-23T16:56:34.170Z,95257.72
2023-05-23T16:59:36.210Z,95253.38
2023-05-23T17:02:43.764Z,95255.75
2023-05-23T17:05:45.998Z,95258.81
2023-05-23T17:08:48.687Z,95260.69
2023-05-23T17:11:51.206Z,95257.72
2023-05-23T17:14:53.068Z,95247.81
2023-05-23T17:17:56.894Z,95252.25
2023-05-23T17:20:59.326Z,95254.22
2023-05-23T17:24:02.405Z,95259.41
2023-05-23T17:27:05.528Z,95253.50
2023-05-23T17:30:09.408Z,95246.66
2023-05-23T17:33:16.117Z,95263.13
2023-05-23T17:36:18.942Z,95258.97
2023-05-23T17:39:22.590Z,95261.78
2023-05-23T17:42:26.684Z,95269.28
2023-05-23T17:45:29.272Z,95265.28
2023-05-23T17:48:46.883Z,95270.63
2023-05-23T17:51:50.416Z,95272.81
2023-05-23T17:54:52.901Z,95269.59
2023-05-23T17:57:56.975Z,95271.56
2023-05-23T18:00:59.887Z,95271.13
2023-05-23T18:04:05.931Z,95270.09
2023-05-23T18:07:10.551Z,95272.50
2023-05-23T18:10:13.020Z,95289.47
2023-05-23T18:13:16.084Z,95279.22
2023-05-23T18:16:21.540Z,95283.94
2023-05-23T18:19:25.814Z,95289.22
2023-05-23T18:22:28.562Z,95285.13
2023-05-23T18:25:31.109Z,95280.16
2023-05-23T18:28:34.680Z,95287.59
2023-05-23T18:31:37.472Z,95303.03
2023-05-23T18:34:43.681Z,95298.91
2023-05-23T18:37:46.541Z,95300.13
2023-05-23T18:40:49.074Z,95311.03
2023-05-23T18:43:52.333Z,95313.84
2023-05-23T18:46:56.563Z,95323.47
2023-05-23T18:50:00.796Z,95326.13
2023-05-23T18:53:04.207Z,95343.31
2023-05-23T18:56:07.101Z,95337.19
2023-05-23T18:59:12.380Z,95340.94
2023-05-23T19:02:15.138Z,95340.94
2023-05-23T19:05:19.186Z,95343.66
2023-05-23T19:08:22.098Z,95351.22
2023-05-23T19:11:25.561Z,95353.19
2023-05-23T19:14:29.158Z,95347.84
2023-05-23T19:17:34.915Z,95350.94
2023-05-23T19:20:39.170Z,95354.56
2023-05-23T19:23:42.054Z,95356.47
2023-05-23T19:26:45.260Z,95364.78
2023-05-23T19:29:50.270Z,95367.81
2023-05-23T19:32:55.287Z,95373.03
2023-05-23T19:35:59.196Z,95379.22
2023-05-23T19:39:01.958Z,95376.50
2023-05-23T19:42:07.989Z,95382.66
2023-05-23T19:45:11.495Z,95388.19
2023-05-23T19:48:13.977Z,95384.44
2023-05-23T19:51:17.540Z,95393.63
2023-05-23T19:54:20.124Z,95406.91
2023-05-23T19:57:22.620Z,95409.22
2023-05-23T20:00:25.074Z,95411.19
2023-05-23T20:03:28.761Z,95415.94
2023-05-23T20:06:35.594Z,95425.25
2023-05-23T20:09:37.616Z,95421.13
2023-05-23T20:12:39.970Z,95425.06
2023-05-23T20:15:42.078Z,95422.31
2023-05-23T20:18:45.376Z,95430.94
2023-05-23T20:21:50.941Z,95430.50
2023-05-23T20:24:54.203Z,95432.44
2023-05-23T20:27:56.575Z,95438.06
2023-05-23T20:31:02.025Z,95441.28
2023-05-23T20:34:04.478Z,95439.72
2023-05-23T20:37:08.939Z,95440.84
2023-05-23T20:40:13.214Z,95449.38
2023-05-23T20:43:15.505Z,95453.50
2023-05-23T20:46:19.209Z,95450.84
2023-05-23T20:49:21.508Z,95445.03
2023-05-23T20:52:26.423Z,95457.34
2023-05-23T20:55:29.265Z,95459.72
2023-05-23T20:58:31.731Z,95466.97
2023-05-23T21:01:33.812Z,95474.41
2023-05-23T21:04:36.291Z,95465.88
2023-05-23T21:07:40.293Z,95472.50
2023-05-23T21:10:45.113Z,95476.25
2023-05-23T21:13:49.818Z,95472.06
2023-05-23T21:16:52.207Z,95472.50
2023-05-23T21:19:54.130Z,95484.06
2023-05-23T21:22:58.611Z,95477.94
2023-05-23T21:26:01.166Z,95480.31
2023-05-23T21:29:06.081Z,95481.13
2023-05-23T21:32:07.812Z,95480.31
2023-05-23T21:35:10.190Z,95481.97
2023-05-23T21:38:13.544Z,95482.44
2023-05-23T21:41:15.799Z,95477.34
2023-05-23T21:44:18.255Z,95487.56
2023-05-23T21:47:20.082Z,95479.31
2023-05-23T21:50:24.035Z,95480.91
2023-05-23T21:53:28.711Z,95479.72
2023-05-23T21:56:30.465Z,95484.34
2023-05-23T21:59:35.413Z,95478.97
2023-05-23T22:02:38.696Z,95487.88
2023-05-23T22:05:41.199Z,95486.56
2023-05-23T22:08:48.199Z,95481.13
2023-05-23T22:11:50.273Z,95477.72
2023-05-23T22:14:52.853Z,95485.06
2023-05-23T22:17:54.656Z,95490.97
2023-05-23T22:20:59.056Z,95483.69
2023-05-23T22:24:02.610Z,95484.09
2023-05-23T22:27:05.134Z,95491.03
2023-05-23T22:30:07.782Z,95494.50
2023-05-23T22:33:12.184Z,95487.56
2023-05-23T22:36:14.610Z,95487.19
2023-05-23T22:39:17.820Z,95498.59
2023-05-23T22:42:19.812Z,95494.75
2023-05-23T22:45:21.786Z,95493.72
2023-05-23T22:48:23.987Z,95496.50
2023-05-23T22:51:27.000Z,95499.25
2023-05-23T22:54:30.335Z,95489.59
2023-05-23T22:57:32.096Z,95495.81
2023-05-23T23:00:35.552Z,95491.97
2023-05-23T23:03:37.459Z,95488.84
2023-05-23T23:06:39.255Z,95500.28
2023-05-23T23:09:44.973Z,95500.66
2023-05-23T23:12:47.036Z,95500.19
2023-05-23T23:15:50.647Z,95497.88
2023-05-23T23:18:53.196Z,95489.72
2023-05-23T23:21:55.893Z,95495.72
2023-05-23T23:25:01.684Z,95493.47
2023-05-23T23:28:04.578Z,95485.41
2023-05-23T23:31:07.431Z,95486.97
2023-05-23T23:34:09.213Z,95491.16
2023-05-23T23:37:11.223Z,95495.66
2023-05-23T23:40:16.260Z,95497.63
2023-05-23T23:43:18.270Z,95490.91
2023-05-23T23:46:20.272Z,95490.50
2023-05-23T23:49:22.690Z,95495.50
2023-05-23T23:52:25.682Z,95491.28
2023-05-23T23:55:29.722Z,95488.84
2023-05-23T23:58:31.733Z,95491.66
